Time;durP1;ratioP1;P1;durP2;ratioP2;P2;SDS_P1;SDS_P2;PMS_P1;PMS_P2;Temp;Humidity;BMP_temperature;BMP_pressure;BME280_temperature;BME280_humidity;BME280_pressure;Samples;Min_cycle;Max_cycle;Signal;HPM_P1;HPM_P2
2023/07/03 00:00:00;;;;;;;21.70;9.57;;;15.90;99.90;;;;;;5030140;28;20497;-86
2023/07/03 00:02:26;;;;;;;14.70;7.27;;;15.80;99.90;;;;;;5035379;28;20431;-86
2023/07/03 00:04:52;;;;;;;15.53;8.20;;;;;;;;;;5035616;28;20443;-86
2023/07/03 00:07:18;;;;;;;23.50;8.50;;;16.10;99.90;;;;;;5039311;28;20245;-85
2023/07/03 00:09:44;;;;;;;18.97;7.03;;;16.20;99.90;;;;;;5038873;28;21545;-85
2023/07/03 00:12:11;;;;;;;19.80;8.30;;;16.30;99.90;;;;;;5046617;28;20185;-85
2023/07/03 00:14:37;;;;;;;20.70;7.23;;;16.30;99.90;;;;;;5047253;28;20435;-86
2023/07/03 00:17:03;;;;;;;16.93;7.57;;;16.40;99.90;;;;;;5041777;28;20911;-86
2023/07/03 00:19:30;;;;;;;17.90;7.37;;;16.50;99.90;;;;;;5038681;28;20463;-87
2023/07/03 00:21:59;;;;;;;19.73;8.33;;;;;;;;;;5031778;28;20439;-87
2023/07/03 00:24:24;;;;;;;18.00;6.77;;;16.60;99.90;;;;;;5057005;28;21254;-86
2023/07/03 00:26:50;;;;;;;20.43;8.23;;;16.80;99.90;;;;;;5044767;28;20501;-83
2023/07/03 00:29:15;;;;;;;17.10;7.87;;;;;;;;;;5045303;28;20656;-85
2023/07/03 00:31:41;;;;;;;14.80;6.53;;;16.80;99.90;;;;;;5055069;28;20315;-84
2023/07/03 00:34:06;;;;;;;18.90;8.17;;;16.90;99.90;;;;;;5039278;28;20812;-87
2023/07/03 00:36:32;;;;;;;18.63;8.87;;;16.90;99.90;;;;;;5037993;28;20218;-85
2023/07/03 00:38:59;;;;;;;18.50;8.30;;;17.00;99.90;;;;;;5042114;28;20807;-87
2023/07/03 00:41:25;;;;;;;19.47;7.70;;;17.00;99.90;;;;;;5041444;28;20232;-86
2023/07/03 00:43:51;;;;;;;23.33;7.90;;;17.10;99.90;;;;;;5039240;28;20447;-86
2023/07/03 00:46:17;;;;;;;18.30;7.70;;;17.00;99.90;;;;;;5035924;28;20679;-86
2023/07/03 00:48:43;;;;;;;14.97;7.70;;;17.10;99.90;;;;;;5036879;28;20233;-85
2023/07/03 00:51:12;;;;;;;20.53;7.80;;;17.10;99.90;;;;;;5035286;28;20432;-86
2023/07/03 00:53:37;;;;;;;22.73;8.10;;;17.20;99.90;;;;;;5035909;28;20951;-85
2023/07/03 00:56:04;;;;;;;17.03;7.47;;;17.20;99.90;;;;;;5039959;28;20447;-86
2023/07/03 00:58:30;;;;;;;15.33;8.00;;;;;;;;;;5039395;28;20707;-85
2023/07/03 01:01:07;;;;;;;18.10;7.70;;;17.30;99.90;;;;;;5033732;28;20531;-84
2023/07/03 01:03:39;;;;;;;18.80;8.70;;;17.40;99.90;;;;;;5029033;28;20731;-85
2023/07/03 01:06:08;;;;;;;17.10;8.33;;;17.50;99.90;;;;;;5031286;28;20423;-86
2023/07/03 01:08:34;;;;;;;24.10;7.63;;;17.50;99.90;;;;;;5034623;28;20550;-85
2023/07/03 01:11:00;;;;;;;22.23;7.53;;;17.50;99.90;;;;;;5036398;28;20443;-86
2023/07/03 01:13:28;;;;;;;16.93;6.70;;;17.60;99.90;;;;;;5036543;28;20559;-85
2023/07/03 01:15:55;;;;;;;27.97;6.90;;;17.60;99.90;;;;;;5036516;28;20201;-84
2023/07/03 01:18:22;;;;;;;14.17;7.00;;;17.60;99.90;;;;;;5036945;28;21013;-86
2023/07/03 01:20:55;;;;;;;19.57;8.50;;;17.60;99.90;;;;;;5033896;28;20553;-83
2023/07/03 01:23:33;;;;;;;21.07;8.83;;;17.60;99.90;;;;;;5036580;28;20909;-83
2023/07/03 01:26:00;;;;;;;13.97;7.70;;;17.50;99.90;;;;;;5039785;28;20485;-86
2023/07/03 01:28:27;;;;;;;12.83;7.30;;;17.50;99.90;;;;;;5031331;28;20950;-86
2023/07/03 01:30:55;;;;;;;21.50;8.47;;;17.40;99.90;;;;;;5031594;28;20463;-85
2023/07/03 01:33:29;;;;;;;14.57;8.40;;;17.30;99.90;;;;;;5037541;28;20431;-87
2023/07/03 01:35:55;;;;;;;14.13;6.80;;;17.30;99.90;;;;;;5035102;28;20459;-88
2023/07/03 01:38:22;;;;;;;23.87;7.73;;;17.30;99.90;;;;;;5030216;28;20489;-86
2023/07/03 01:40:48;;;;;;;18.53;7.50;;;;;;;;;;5048501;28;20181;-85
2023/07/03 01:43:15;;;;;;;16.83;6.70;;;17.30;99.90;;;;;;5033497;28;20431;-87
2023/07/03 01:45:45;;;;;;;17.37;6.77;;;17.40;99.90;;;;;;5033803;28;20950;-87
2023/07/03 01:48:11;;;;;;;17.97;8.23;;;17.40;99.90;;;;;;5033652;28;20888;-85
2023/07/03 01:50:38;;;;;;;26.37;8.30;;;17.40;99.90;;;;;;5030740;28;20431;-85
2023/07/03 01:53:20;;;;;;;12.80;6.63;;;17.40;99.90;;;;;;5033963;28;20493;-85
2023/07/03 01:56:17;;;;;;;16.60;7.77;;;17.50;99.90;;;;;;5036982;28;20481;-85
2023/07/03 01:58:47;;;;;;;22.73;8.50;;;17.50;99.90;;;;;;5040590;28;21559;-87
2023/07/03 02:01:27;;;;;;;22.57;8.40;;;17.40;99.90;;;;;;5035492;28;20439;-86
2023/07/03 02:03:59;;;;;;;15.40;6.70;;;17.50;99.90;;;;;;5031537;28;20909;-86
2023/07/03 02:06:34;;;;;;;20.90;7.90;;;17.40;99.90;;;;;;5032548;28;20460;-87
2023/07/03 02:09:00;;;;;;;15.30;7.13;;;17.40;99.90;;;;;;5035567;28;20482;-88
2023/07/03 02:11:28;;;;;;;14.13;6.80;;;17.40;99.90;;;;;;5032941;28;20439;-86
2023/07/03 02:13:53;;;;;;;15.40;6.33;;;17.40;99.90;;;;;;5054781;28;20435;-85
2023/07/03 02:16:19;;;;;;;20.50;8.73;;;;;;;;;;5041446;28;20466;-86
2023/07/03 02:18:49;;;;;;;12.60;7.10;;;17.50;99.90;;;;;;5038710;28;21366;-87
2023/07/03 02:21:15;;;;;;;22.43;7.60;;;17.50;99.90;;;;;;5039502;28;20431;-84
2023/07/03 02:23:41;;;;;;;17.43;6.67;;;17.50;99.90;;;;;;5039232;28;20512;-88
2023/07/03 02:26:07;;;;;;;17.47;7.67;;;17.50;99.90;;;;;;5044170;28;20444;-86
2023/07/03 02:28:34;;;;;;;18.00;7.40;;;17.40;99.90;;;;;;5039959;28;21041;-86
2023/07/03 02:30:59;;;;;;;12.27;6.57;;;17.40;99.90;;;;;;5037415;28;21187;-86
2023/07/03 02:33:25;;;;;;;14.13;6.57;;;17.40;99.90;;;;;;5036412;28;20518;-87
2023/07/03 02:35:51;;;;;;;16.00;6.67;;;17.50;99.90;;;;;;5036340;28;20643;-86
2023/07/03 02:38:17;;;;;;;22.30;8.97;;;;;;;;;;5038567;28;20286;-87
2023/07/03 02:40:42;;;;;;;18.63;7.60;;;17.50;99.90;;;;;;5043724;28;20188;-87
2023/07/03 02:43:08;;;;;;;21.60;7.83;;;17.50;99.90;;;;;;5035377;28;20435;-87
2023/07/03 02:45:38;;;;;;;16.57;8.10;;;17.40;99.90;;;;;;5041758;28;20385;-86
2023/07/03 02:48:05;;;;;;;15.10;7.30;;;17.40;99.90;;;;;;5057255;28;20491;-84
2023/07/03 02:50:30;;;;;;;13.47;6.20;;;17.40;99.90;;;;;;5052131;28;20457;-87
2023/07/03 02:52:56;;;;;;;13.20;7.30;;;17.40;99.90;;;;;;5044316;28;20447;-88
2023/07/03 02:55:22;;;;;;;13.43;7.57;;;;;;;;;;5043555;28;20192;-85
2023/07/03 02:57:47;;;;;;;15.53;8.60;;;17.40;99.90;;;;;;5053656;28;20218;-85
2023/07/03 03:00:13;;;;;;;19.30;7.43;;;17.40;99.90;;;;;;5041472;28;20447;-87
2023/07/03 03:02:39;;;;;;;16.00;6.10;;;17.50;99.90;;;;;;5038919;28;20204;-86
2023/07/03 03:05:05;;;;;;;18.40;9.50;;;17.50;99.90;;;;;;5041512;28;21091;-86
2023/07/03 03:07:31;;;;;;;12.17;6.67;;;17.50;99.90;;;;;;5039744;28;20204;-86
2023/07/03 03:09:57;;;;;;;19.83;6.30;;;;;;;;;;5035586;28;20427;-86
2023/07/03 03:12:22;;;;;;;22.20;8.30;;;17.50;99.90;;;;;;5040815;28;20189;-86
2023/07/03 03:14:48;;;;;;;20.63;6.37;;;17.50;99.90;;;;;;5049672;28;20462;-85
2023/07/03 03:17:14;;;;;;;19.43;7.30;;;17.60;99.90;;;;;;5040850;28;20220;-85
2023/07/03 03:19:40;;;;;;;22.97;7.47;;;17.50;99.90;;;;;;5039042;28;20262;-86
2023/07/03 03:22:05;;;;;;;22.20;7.30;;;17.50;99.90;;;;;;5042380;28;20578;-85
2023/07/03 03:24:31;;;;;;;13.27;6.43;;;;;;;;;;5036020;28;20261;-86
2023/07/03 03:26:57;;;;;;;18.83;7.60;;;17.50;99.90;;;;;;5043007;28;20208;-84
2023/07/03 03:29:22;;;;;;;9.43;5.60;;;17.50;99.90;;;;;;5037627;28;20435;-86
2023/07/03 03:31:48;;;;;;;23.03;7.07;;;17.40;99.90;;;;;;5041379;28;20234;-85
2023/07/03 03:34:13;;;;;;;23.40;7.30;;;17.40;99.90;;;;;;5043315;28;20278;-85
2023/07/03 03:36:39;;;;;;;15.20;6.50;;;;;;;;;;5043867;28;20208;-86
2023/07/03 03:39:05;;;;;;;17.30;7.53;;;17.50;99.90;;;;;;5036343;28;20235;-86
2023/07/03 03:41:31;;;;;;;16.87;7.37;;;17.40;99.90;;;;;;5041342;28;20442;-86
2023/07/03 03:43:57;;;;;;;15.43;7.13;;;;;;;;;;5044202;28;20463;-85
2023/07/03 03:46:23;;;;;;;18.43;7.27;;;17.40;99.90;;;;;;5041634;28;20192;-83
2023/07/03 03:48:48;;;;;;;18.07;7.30;;;17.50;99.90;;;;;;5040643;28;20562;-87
2023/07/03 03:51:14;;;;;;;15.93;7.07;;;;;;;;;;5040712;28;20212;-86
2023/07/03 03:53:40;;;;;;;17.80;7.37;;;17.50;99.90;;;;;;5040830;28;20189;-86
2023/07/03 03:56:06;;;;;;;14.67;7.40;;;;;;;;;;5041510;28;20455;-83
2023/07/03 03:58:32;;;;;;;15.83;7.60;;;;;;;;;;5042622;28;20201;-84
2023/07/03 04:00:57;;;;;;;23.50;7.90;;;17.50;99.90;;;;;;5042058;28;20572;-85
2023/07/03 04:03:23;;;;;;;15.60;6.50;;;;;;;;;;5042072;28;20474;-86
2023/07/03 04:05:49;;;;;;;13.43;6.90;;;17.40;99.90;;;;;;5036001;28;20189;-86
2023/07/03 04:08:14;;;;;;;14.40;7.47;;;17.50;99.90;;;;;;5036840;28;20459;-85
2023/07/03 04:10:42;;;;;;;20.40;7.93;;;;;;;;;;5035347;28;20196;-84
2023/07/03 04:13:08;;;;;;;13.63;7.63;;;;;;;;;;5038784;28;20543;-83
2023/07/03 04:15:35;;;;;;;14.43;7.47;;;17.50;99.90;;;;;;5043300;28;20431;-83
2023/07/03 04:18:01;;;;;;;19.20;7.73;;;;;;;;;;5039043;28;20475;-84
2023/07/03 04:20:27;;;;;;;18.83;8.67;;;17.60;99.90;;;;;;5038485;28;20420;-82
2023/07/03 04:22:53;;;;;;;17.73;7.57;;;17.60;99.90;;;;;;5035281;28;20673;-86
2023/07/03 04:25:19;;;;;;;20.30;8.33;;;17.60;99.90;;;;;;5034431;28;21568;-85
2023/07/03 04:27:45;;;;;;;22.17;6.93;;;;;;;;;;5037747;28;20208;-83
2023/07/03 04:30:11;;;;;;;16.33;8.70;;;;;;;;;;5037312;28;20469;-88
2023/07/03 04:32:37;;;;;;;18.03;7.60;;;;;;;;;;5041577;28;20573;-87
2023/07/03 04:35:03;;;;;;;22.50;8.40;;;17.70;99.90;;;;;;5040239;28;20832;-86
2023/07/03 04:37:29;;;;;;;20.87;8.90;;;17.70;99.90;;;;;;5037845;28;20475;-84
2023/07/03 04:39:56;;;;;;;16.10;7.60;;;17.70;99.90;;;;;;5035471;28;21273;-86
2023/07/03 04:42:21;;;;;;;19.13;7.83;;;17.70;99.90;;;;;;5044091;28;20459;-88
2023/07/03 04:44:50;;;;;;;19.00;7.03;;;;;;;;;;5031317;28;20447;-87
2023/07/03 04:47:16;;;;;;;15.87;7.00;;;17.70;99.90;;;;;;5048879;28;20232;-86
2023/07/03 04:49:43;;;;;;;15.17;7.77;;;17.70;99.90;;;;;;5036393;28;20482;-85
2023/07/03 04:52:09;;;;;;;22.27;7.50;;;17.80;99.90;;;;;;5034287;28;20877;-84
2023/07/03 04:54:36;;;;;;;18.93;8.30;;;17.80;99.90;;;;;;5037611;28;20467;-85
2023/07/03 04:57:01;;;;;;;22.67;8.23;;;17.90;99.90;;;;;;5029282;28;20471;-86
2023/07/03 04:59:27;;;;;;;17.43;7.70;;;;;;;;;;5031151;28;20434;-85
2023/07/03 05:01:53;;;;;;;21.03;8.67;;;;;;;;;;5037485;28;20185;-84
2023/07/03 05:04:19;;;;;;;16.07;7.60;;;;;;;;;;5032385;28;20428;-86
2023/07/03 05:06:46;;;;;;;14.80;7.07;;;17.90;99.90;;;;;;5039023;28;20454;-86
2023/07/03 05:09:11;;;;;;;15.10;6.97;;;17.90;99.90;;;;;;5041434;28;20436;-86
2023/07/03 05:11:37;;;;;;;13.73;7.97;;;;;;;;;;5040745;28;20435;-86
2023/07/03 05:14:03;;;;;;;15.23;7.63;;;18.00;99.90;;;;;;5042165;28;20792;-86
2023/07/03 05:16:29;;;;;;;14.07;7.23;;;;;;;;;;5040766;28;20461;-86
2023/07/03 05:18:54;;;;;;;21.13;7.17;;;18.20;99.90;;;;;;5041342;28;20572;-85
2023/07/03 05:21:20;;;;;;;13.70;7.00;;;;;;;;;;5041427;28;20454;-86
2023/07/03 05:23:46;;;;;;;12.60;6.10;;;18.40;99.90;;;;;;5035665;28;20264;-86
2023/07/03 05:26:12;;;;;;;14.70;7.30;;;;;;;;;;5032881;28;20934;-86
2023/07/03 05:28:37;;;;;;;18.77;7.80;;;18.50;99.90;;;;;;5014045;28;21292;-86
2023/07/03 05:31:03;;;;;;;13.47;7.50;;;;;;;;;;5033702;28;20427;-84
2023/07/03 05:33:30;;;;;;;13.83;7.77;;;18.80;99.90;;;;;;5033406;28;20192;-85
2023/07/03 05:36:02;;;;;;;23.97;7.70;;;18.80;99.90;;;;;;5033616;28;20466;-86
2023/07/03 05:38:28;;;;;;;17.40;8.00;;;18.90;99.90;;;;;;5029224;28;20459;-86
2023/07/03 05:40:54;;;;;;;21.63;8.00;;;18.80;99.90;;;;;;5031051;28;21295;-86
2023/07/03 05:43:21;;;;;;;18.03;8.00;;;18.90;99.90;;;;;;5035212;28;20427;-86
2023/07/03 05:45:48;;;;;;;20.53;8.30;;;18.80;99.90;;;;;;5051959;28;20477;-84
2023/07/03 05:48:13;;;;;;;15.27;7.10;;;18.90;99.90;;;;;;5031334;28;20482;-86
2023/07/03 05:50:39;;;;;;;13.53;6.47;;;;;;;;;;5030555;28;20952;-87
2023/07/03 05:53:05;;;;;;;11.87;6.73;;;;;;;;;;5031642;28;20607;-86
2023/07/03 05:55:30;;;;;;;21.20;7.53;;;18.70;99.90;;;;;;5031010;28;20435;-85
2023/07/03 05:57:56;;;;;;;16.73;7.30;;;;;;;;;;5031800;28;20478;-86
2023/07/03 06:00:23;;;;;;;14.87;6.53;;;18.50;99.90;;;;;;5046581;28;20181;-86
2023/07/03 06:02:53;;;;;;;17.53;7.50;;;;;;;;;;5035670;28;20531;-87
2023/07/03 06:05:20;;;;;;;19.07;7.37;;;18.70;99.90;;;;;;5048059;28;20470;-86
2023/07/03 06:07:46;;;;;;;15.13;7.03;;;;;;;;;;5033450;28;21768;-87
2023/07/03 06:10:12;;;;;;;15.30;7.57;;;19.00;99.90;;;;;;5030193;28;20479;-86
2023/07/03 06:12:39;;;;;;;14.93;7.37;;;19.00;99.90;;;;;;5031998;28;20424;-86
2023/07/03 06:15:05;;;;;;;18.07;7.20;;;19.30;99.90;;;;;;5026193;28;22444;-86
2023/07/03 06:17:31;;;;;;;14.67;6.27;;;19.40;99.90;;;;;;5029768;28;20478;-86
2023/07/03 06:19:57;;;;;;;16.47;7.40;;;;;;;;;;5032922;28;20443;-86
2023/07/03 06:22:23;;;;;;;20.93;8.00;;;;;;;;;;5034151;28;20192;-86
2023/07/03 06:24:49;;;;;;;15.47;6.90;;;19.40;99.90;;;;;;5033383;28;20443;-86
2023/07/03 06:27:15;;;;;;;11.37;6.70;;;19.30;99.90;;;;;;5028305;28;20463;-86
2023/07/03 06:29:41;;;;;;;15.47;7.30;;;;;;;;;;5033054;28;20443;-85
2023/07/03 06:32:09;;;;;;;25.37;8.57;;;19.40;99.90;;;;;;5032122;28;20436;-84
2023/07/03 06:34:35;;;;;;;21.80;8.00;;;19.30;99.90;;;;;;5033374;28;20469;-84
2023/07/03 06:37:02;;;;;;;16.50;8.80;;;19.40;99.90;;;;;;5037056;28;20542;-85
2023/07/03 06:39:28;;;;;;;18.80;7.50;;;19.40;99.90;;;;;;5032225;28;20450;-83
2023/07/03 06:41:54;;;;;;;21.07;7.03;;;19.10;99.90;;;;;;5032593;28;20818;-84
2023/07/03 06:44:20;;;;;;;19.33;8.43;;;;;;;;;;5034342;28;20236;-84
2023/07/03 06:46:46;;;;;;;18.57;7.17;;;;;;;;;;5027143;28;20713;-84
2023/07/03 06:49:12;;;;;;;15.13;6.97;;;19.70;99.90;;;;;;5032008;28;21171;-87
2023/07/03 06:51:40;;;;;;;16.53;7.70;;;;;;;;;;5032544;28;21015;-85
2023/07/03 06:54:05;;;;;;;22.30;10.13;;;19.40;99.90;;;;;;5031678;28;21322;-84
2023/07/03 06:56:31;;;;;;;14.27;7.00;;;19.20;99.90;;;;;;5034589;28;20509;-85
2023/07/03 06:58:57;;;;;;;17.40;7.63;;;;;;;;;;5037718;28;20185;-85
2023/07/03 07:01:25;;;;;;;16.03;7.37;;;19.20;99.90;;;;;;5035599;28;20200;-86
2023/07/03 07:03:50;;;;;;;18.77;8.37;;;19.30;99.90;;;;;;5039809;28;20463;-82
2023/07/03 07:06:19;;;;;;;15.37;6.40;;;19.40;99.90;;;;;;5050728;28;20569;-85
2023/07/03 07:08:45;;;;;;;16.93;8.70;;;19.30;99.90;;;;;;5037248;28;20268;-84
2023/07/03 07:11:13;;;;;;;11.60;5.70;;;19.00;99.90;;;;;;5055001;28;20538;-84
2023/07/03 07:13:40;;;;;;;10.50;4.80;;;19.00;99.90;;;;;;5037203;28;20443;-83
2023/07/03 07:16:14;;;;;;;12.93;6.43;;;19.20;99.90;;;;;;5034897;28;20508;-83
2023/07/03 07:18:40;;;;;;;13.83;6.43;;;19.20;99.90;;;;;;5034792;28;20470;-86
2023/07/03 07:21:06;;;;;;;12.73;5.90;;;19.20;99.90;;;;;;5041681;28;20428;-85
2023/07/03 07:23:32;;;;;;;13.90;5.87;;;19.20;99.90;;;;;;5040666;28;20427;-85
2023/07/03 07:25:58;;;;;;;15.77;5.80;;;19.30;99.90;;;;;;5038617;28;20440;-83
2023/07/03 07:28:23;;;;;;;9.90;5.20;;;19.20;99.90;;;;;;5028132;28;20350;-85
2023/07/03 07:30:49;;;;;;;11.13;5.20;;;19.30;99.90;;;;;;5031354;28;20222;-83
2023/07/03 07:33:15;;;;;;;15.83;4.97;;;;;;;;;;5033171;28;21033;-86
2023/07/03 07:35:43;;;;;;;11.60;4.90;;;19.00;99.90;;;;;;5034483;28;20257;-83
2023/07/03 07:38:09;;;;;;;19.07;6.90;;;;;;;;;;5050062;28;20468;-85
2023/07/03 07:40:35;;;;;;;14.33;5.40;;;;;;;;;;5035710;28;20423;-86
2023/07/03 07:43:01;;;;;;;11.80;6.07;;;;;;;;;;5034459;28;20458;-87
2023/07/03 07:45:27;;;;;;;13.40;5.80;;;19.20;99.90;;;;;;5034909;28;20970;-86
2023/07/03 07:47:53;;;;;;;12.60;5.13;;;;;;;;;;5037047;28;20559;-83
2023/07/03 07:50:19;;;;;;;13.03;5.17;;;19.40;99.90;;;;;;5034425;28;20210;-86
2023/07/03 07:52:44;;;;;;;9.17;5.20;;;;;;;;;;5038898;28;20535;-83
2023/07/03 07:55:10;;;;;;;12.30;5.67;;;;;;;;;;5035315;28;20216;-86
2023/07/03 07:57:36;;;;;;;15.33;5.20;;;;;;;;;;5053045;28;20586;-83
2023/07/03 08:00:03;;;;;;;16.10;6.07;;;;;;;;;;5037189;28;20489;-84
2023/07/03 08:02:29;;;;;;;13.73;5.80;;;;;;;;;;5052253;28;21181;-86
2023/07/03 08:04:55;;;;;;;12.13;5.83;;;;;;;;;;5042233;28;20450;-85
2023/07/03 08:07:21;;;;;;;17.10;6.20;;;;;;;;;;5037591;28;20455;-86
2023/07/03 08:09:47;;;;;;;15.73;4.80;;;;;;;;;;5033593;28;20431;-83
2023/07/03 08:12:12;;;;;;;16.60;5.87;;;;;;;;;;5036815;28;20439;-84
2023/07/03 08:14:38;;;;;;;15.93;6.10;;;;;;;;;;5035752;28;21182;-87
2023/07/03 08:17:04;;;;;;;14.13;7.57;;;;;;;;;;5047234;28;20464;-86
2023/07/03 08:19:31;;;;;;;18.87;6.73;;;;;;;;;;5055758;28;20470;-84
2023/07/03 08:21:58;;;;;;;10.73;5.40;;;;;;;;;;5033448;28;20441;-84
2023/07/03 08:24:23;;;;;;;19.97;6.70;;;;;;;;;;5052641;28;20439;-84
2023/07/03 08:26:50;;;;;;;13.40;6.13;;;;;;;;;;5032703;28;20862;-83
2023/07/03 08:29:17;;;;;;;13.00;4.60;;;;;;;;;;5033605;28;20911;-86
2023/07/03 08:31:43;;;;;;;15.30;4.70;;;;;;;;;;5031288;28;20441;-87
2023/07/03 08:34:10;;;;;;;9.83;5.47;;;22.30;97.40;;;;;;5031002;28;20432;-84
2023/07/03 08:36:36;;;;;;;11.23;4.97;;;;;;;;;;5033123;28;20467;-85
2023/07/03 08:39:03;;;;;;;8.50;3.87;;;22.70;93.70;;;;;;5032489;28;20424;-85
2023/07/03 08:41:34;;;;;;;13.10;4.37;;;21.40;95.60;;;;;;5031063;28;20442;-84
2023/07/03 08:44:00;;;;;;;13.40;4.73;;;22.60;97.70;;;;;;5029169;28;20493;-85
2023/07/03 08:46:28;;;;;;;6.90;4.10;;;24.50;93.00;;;;;;5032070;28;20462;-85
2023/07/03 08:49:00;;;;;;;17.07;4.93;;;24.10;93.00;;;;;;5031668;28;20471;-83
2023/07/03 08:51:29;;;;;;;17.43;5.27;;;25.50;92.20;;;;;;5029595;28;20448;-84
2023/07/03 08:54:03;;;;;;;9.83;4.43;;;26.70;85.20;;;;;;5033720;28;20487;-86
2023/07/03 08:56:32;;;;;;;14.10;4.37;;;25.60;85.50;;;;;;5027498;28;22997;-85
2023/07/03 08:58:58;;;;;;;9.77;4.10;;;;;;;;;;5036579;28;20437;-86
2023/07/03 09:01:24;;;;;;;9.70;4.60;;;;;;;;;;5031324;28;20448;-84
2023/07/03 09:04:22;;;;;;;8.40;4.67;;;24.60;88.30;;;;;;5030306;28;20429;-86
2023/07/03 09:07:07;;;;;;;8.10;3.93;;;25.20;83.70;;;;;;5036159;28;20452;-85
2023/07/03 09:09:36;;;;;;;10.70;4.80;;;23.40;84.80;;;;;;5036369;28;20440;-86
2023/07/03 09:12:02;;;;;;;15.20;4.43;;;;;;;;;;5032542;28;20439;-87
2023/07/03 09:14:37;;;;;;;17.13;4.53;;;23.00;91.30;;;;;;5049175;28;20504;-84
2023/07/03 09:17:13;;;;;;;12.10;5.00;;;23.00;90.80;;;;;;5026879;28;20470;-87
2023/07/03 09:19:43;;;;;;;15.07;5.30;;;22.30;91.50;;;;;;5029654;28;20430;-86
2023/07/03 09:22:16;;;;;;;12.03;5.50;;;22.90;92.60;;;;;;5029326;28;20506;-84
2023/07/03 09:24:44;;;;;;;8.03;3.53;;;22.80;91.50;;;;;;5043940;28;20438;-85
2023/07/03 09:27:18;;;;;;;13.00;4.40;;;22.00;92.10;;;;;;5022754;28;21077;-84
2023/07/03 09:29:45;;;;;;;10.10;5.00;;;22.20;93.40;;;;;;5039946;28;20459;-84
2023/07/03 09:32:12;;;;;;;6.93;3.87;;;21.50;93.20;;;;;;5030126;28;20431;-87
2023/07/03 09:34:56;;;;;;;10.00;3.90;;;22.00;92.60;;;;;;5031748;28;20443;-85
2023/07/03 09:37:22;;;;;;;10.93;3.73;;;22.30;92.70;;;;;;5026235;28;20486;-86
2023/07/03 09:39:50;;;;;;;7.43;3.47;;;22.30;93.00;;;;;;5049317;28;20527;-85
2023/07/03 09:42:16;;;;;;;10.23;4.20;;;;;;;;;;5027202;28;20174;-85
2023/07/03 09:44:42;;;;;;;13.27;3.27;;;;;;;;;;5040738;28;20497;-85
2023/07/03 09:47:22;;;;;;;14.77;3.00;;;23.40;91.00;;;;;;5037174;28;20456;-86
2023/07/03 09:49:49;;;;;;;9.27;3.07;;;23.50;90.60;;;;;;5025467;28;20525;-85
2023/07/03 09:52:14;;;;;;;9.03;3.43;;;23.70;91.30;;;;;;5021086;28;20439;-84
2023/07/03 09:54:45;;;;;;;10.33;3.47;;;24.20;90.30;;;;;;5026552;28;20442;-84
2023/07/03 09:57:21;;;;;;;6.80;3.10;;;23.60;87.60;;;;;;5028613;28;20475;-84
2023/07/03 09:59:47;;;;;;;10.37;3.70;;;;;;;;;;5024066;28;20443;-84
2023/07/03 10:02:13;;;;;;;6.77;2.83;;;;;;;;;;5023770;28;20521;-85
2023/07/03 10:04:44;;;;;;;10.00;2.90;;;24.60;86.40;;;;;;5027553;28;20486;-84
2023/07/03 10:07:14;;;;;;;6.90;3.17;;;24.10;85.50;;;;;;5049076;28;20466;-84
2023/07/03 10:09:41;;;;;;;8.20;2.47;;;22.80;87.40;;;;;;5047020;28;20425;-87
2023/07/03 10:12:27;;;;;;;4.60;2.83;;;22.10;88.70;;;;;;5032484;28;20427;-83
2023/07/03 10:15:13;;;;;;;6.97;3.00;;;22.00;91.40;;;;;;5021561;28;20428;-83
2023/07/03 10:17:50;;;;;;;7.60;3.40;;;21.70;91.60;;;;;;5024383;28;20493;-85
2023/07/03 10:20:23;;;;;;;5.30;2.47;;;21.90;91.60;;;;;;5029631;28;20947;-84
2023/07/03 10:22:51;;;;;;;4.67;2.27;;;21.90;91.90;;;;;;5028267;28;21544;-85
2023/07/03 10:25:26;;;;;;;4.93;2.03;;;22.90;89.60;;;;;;5029020;28;20501;-84
2023/07/03 10:27:57;;;;;;;4.57;2.87;;;22.00;90.50;;;;;;5047126;28;20462;-83
2023/07/03 10:30:27;;;;;;;4.73;2.10;;;22.50;91.20;;;;;;5021058;28;20552;-84
2023/07/03 10:32:54;;;;;;;7.10;1.97;;;;;;;;;;5031071;28;20427;-86
2023/07/03 10:35:25;;;;;;;8.30;2.63;;;22.00;90.60;;;;;;5033560;28;20467;-86
2023/07/03 10:37:59;;;;;;;6.50;3.10;;;22.20;91.60;;;;;;5029598;28;20544;-86
2023/07/03 10:40:47;;;;;;;5.87;3.03;;;22.70;91.20;;;;;;5030874;28;20415;-84
2023/07/03 10:43:14;;;;;;;5.33;2.40;;;21.90;91.00;;;;;;5032239;28;20423;-86
2023/07/03 10:45:41;;;;;;;11.33;3.10;;;;;;;;;;5034952;28;20454;-85
2023/07/03 10:48:19;;;;;;;7.40;2.73;;;22.00;91.40;;;;;;5030517;28;20463;-85
2023/07/03 10:51:12;;;;;;;14.20;2.80;;;22.10;91.90;;;;;;5030504;28;20449;-84
2023/07/03 10:53:55;;;;;;;8.23;2.30;;;20.70;93.20;;;;;;5031882;28;20879;-85
2023/07/03 10:56:31;;;;;;;6.93;3.00;;;;;;;;;;5042955;28;20447;-83
2023/07/03 10:59:24;;;;;;;7.63;3.00;;;21.10;94.90;;;;;;5049377;28;20427;-86
2023/07/03 11:01:50;;;;;;;8.00;2.80;;;21.20;95.10;;;;;;5038464;28;20462;-85
2023/07/03 11:04:20;;;;;;;7.23;2.60;;;21.50;94.20;;;;;;5058601;28;20463;-86
2023/07/03 11:07:03;;;;;;;11.47;2.63;;;21.10;93.30;;;;;;5039383;28;20734;-87
2023/07/03 11:09:47;;;;;;;6.23;2.30;;;21.20;94.10;;;;;;5039950;28;20455;-85
2023/07/03 11:12:30;;;;;;;5.53;1.97;;;21.10;93.90;;;;;;5052444;28;20863;-86
2023/07/03 11:15:28;;;;;;;5.33;2.00;;;21.00;94.10;;;;;;5039516;28;20435;-85
2023/07/03 11:17:55;;;;;;;7.47;2.80;;;;;;;;;;5025850;28;21477;-83
2023/07/03 11:20:35;;;;;;;5.30;2.27;;;21.30;93.50;;;;;;5032463;28;20443;-85
2023/07/03 11:23:08;;;;;;;3.07;1.67;;;22.00;93.30;;;;;;5026882;28;20440;-84
2023/07/03 11:25:42;;;;;;;2.90;1.60;;;22.00;93.10;;;;;;5033401;28;20450;-85
2023/07/03 11:28:26;;;;;;;4.33;1.37;;;22.20;93.10;;;;;;5032027;28;20452;-85
2023/07/03 11:30:52;;;;;;;4.07;1.73;;;21.70;92.80;;;;;;5030328;28;20981;-83
2023/07/03 11:33:21;;;;;;;3.60;2.17;;;;;;;;;;5051966;28;21200;-83
2023/07/03 11:35:57;;;;;;;4.20;1.80;;;21.40;94.00;;;;;;5038964;28;20910;-84
2023/07/03 11:38:25;;;;;;;2.60;1.47;;;21.10;93.10;;;;;;5031247;28;20487;-86
2023/07/03 11:40:53;;;;;;;6.10;1.10;;;20.70;93.90;;;;;;5033101;28;20881;-87
2023/07/03 11:43:32;;;;;;;5.17;1.33;;;21.00;95.00;;;;;;5048774;28;20996;-84
2023/07/03 11:45:58;;;;;;;3.67;1.63;;;;;;;;;;5029636;28;20537;-86
2023/07/03 11:48:33;;;;;;;10.53;2.20;;;21.80;95.30;;;;;;5030506;28;20455;-84
2023/07/03 11:51:07;;;;;;;3.67;1.63;;;22.30;93.30;;;;;;5028468;28;20963;-83
2023/07/03 11:53:39;;;;;;;7.87;1.57;;;22.60;93.90;;;;;;5039231;28;21105;-84
2023/07/03 11:56:10;;;;;;;8.10;2.20;;;22.50;93.60;;;;;;5032728;28;21398;-85
2023/07/03 11:58:36;;;;;;;8.10;2.60;;;22.40;94.40;;;;;;5027622;28;20466;-83
2023/07/03 12:01:20;;;;;;;2.67;1.67;;;22.40;94.70;;;;;;5027819;28;20442;-86
2023/07/03 12:04:00;;;;;;;5.53;2.17;;;22.90;93.60;;;;;;5033385;28;21787;-86
2023/07/03 12:06:40;;;;;;;6.40;2.40;;;23.30;92.10;;;;;;5029663;28;20550;-86
2023/07/03 12:09:25;;;;;;;4.20;1.60;;;23.40;92.20;;;;;;5050046;28;20428;-86
2023/07/03 12:11:59;;;;;;;2.50;1.87;;;23.50;91.80;;;;;;5036896;28;20459;-85
2023/07/03 12:14:44;;;;;;;3.43;1.60;;;22.60;90.50;;;;;;5034128;28;20465;-84
2023/07/03 12:17:17;;;;;;;8.23;1.63;;;22.40;92.20;;;;;;5027865;28;20481;-84
2023/07/03 12:19:43;;;;;;;3.83;2.00;;;22.30;93.10;;;;;;5030235;28;21534;-86
2023/07/03 12:22:13;;;;;;;4.83;1.97;;;23.10;92.80;;;;;;5032557;28;20434;-85
2023/07/03 12:24:39;;;;;;;4.07;1.60;;;;;;;;;;5031473;28;20446;-85
2023/07/03 12:27:06;;;;;;;3.60;1.53;;;23.90;90.60;;;;;;5033421;28;20464;-85
2023/07/03 12:29:43;;;;;;;2.40;1.20;;;24.20;91.30;;;;;;5031040;28;20550;-86
2023/07/03 12:32:09;;;;;;;2.60;1.60;;;;;;;;;;5033363;28;20438;-83
2023/07/03 12:34:40;;;;;;;5.60;1.83;;;23.70;87.10;;;;;;5029029;28;20440;-86
2023/07/03 12:37:12;;;;;;;2.80;1.77;;;23.60;87.80;;;;;;5030547;28;20471;-86
2023/07/03 12:39:38;;;;;;;1.80;1.23;;;;;;;;;;5031730;28;20431;-85
2023/07/03 12:42:13;;;;;;;4.13;1.40;;;24.40;86.20;;;;;;5046382;28;20466;-86
2023/07/03 12:44:39;;;;;;;3.37;1.83;;;;;;;;;;5030833;28;20459;-85
2023/07/03 12:47:23;;;;;;;2.37;1.60;;;24.40;84.50;;;;;;5030951;28;20491;-83
2023/07/03 12:49:55;;;;;;;4.67;2.20;;;24.70;82.80;;;;;;5030404;28;20436;-85
2023/07/03 12:52:21;;;;;;;2.03;1.30;;;;;;;;;;5034274;28;20433;-85
2023/07/03 12:54:47;;;;;;;4.93;1.80;;;;;;;;;;5029845;28;20444;-83
2023/07/03 12:57:13;;;;;;;2.20;1.60;;;;;;;;;;5030702;28;20468;-84
2023/07/03 12:59:48;;;;;;;4.67;1.70;;;24.50;80.50;;;;;;5027124;28;20420;-86
2023/07/03 13:02:23;;;;;;;1.70;1.00;;;24.20;81.60;;;;;;5029664;28;20428;-85
2023/07/03 13:04:58;;;;;;;2.50;1.30;;;24.60;84.40;;;;;;5035809;28;20435;-86
2023/07/03 13:07:24;;;;;;;2.13;1.33;;;;;;;;;;5034507;28;20460;-87
2023/07/03 13:09:52;;;;;;;2.47;1.47;;;23.80;81.40;;;;;;5037944;28;20611;-86
2023/07/03 13:12:24;;;;;;;2.87;1.47;;;23.70;83.00;;;;;;5038669;28;20441;-84
2023/07/03 13:15:12;;;;;;;9.27;1.03;;;23.00;82.50;;;;;;5038779;28;20490;-86